sensor_id;sensor_type;location;lat;lon;timestamp;pressure;altitude;pressure_sealevel;temperature;humidity
11268;BME280;49397;47.474;9.416;2022-12-29T00:01:28;95285.28;;;5.80;59.96
11268;BME280;49397;47.474;9.416;2022-12-29T00:03:54;95294.22;;;5.76;59.63
11268;BME280;49397;47.474;9.416;2022-12-29T00:06:20;95283.41;;;5.81;59.72
11268;BME280;49397;47.474;9.416;2022-12-29T00:08:45;95280.03;;;5.99;56.37
11268;BME280;49397;47.474;9.416;2022-12-29T00:11:12;95267.59;;;6.03;57.13
11268;BME280;49397;47.474;9.416;2022-12-29T00:13:38;95275.72;;;5.98;57.15
11268;BME280;49397;47.474;9.416;2022-12-29T00:16:23;95271.28;;;5.83;58.89
11268;BME280;49397;47.474;9.416;2022-12-29T00:18:49;95260.13;;;5.66;60.04
11268;BME280;49397;47.474;9.416;2022-12-29T00:21:17;95261.38;;;5.74;59.17
11268;BME280;49397;47.474;9.416;2022-12-29T00:24:02;95252.25;;;6.03;55.95
11268;BME280;49397;47.474;9.416;2022-12-29T00:26:48;95244.69;;;6.29;54.85
11268;BME280;49397;47.474;9.416;2022-12-29T00:29:36;95250.16;;;6.19;56.15
11268;BME280;49397;47.474;9.416;2022-12-29T00:32:20;95242.91;;;6.20;57.23
11268;BME280;49397;47.474;9.416;2022-12-29T00:35:04;95242.47;;;6.31;54.51
11268;BME280;49397;47.474;9.416;2022-12-29T00:37:41;95236.84;;;6.51;54.35
11268;BME280;49397;47.474;9.416;2022-12-29T00:40:26;95244.13;;;6.51;55.01
11268;BME280;49397;47.474;9.416;2022-12-29T00:43:11;95242.69;;;6.35;56.43
11268;BME280;49397;47.474;9.416;2022-12-29T00:45:55;95249.81;;;6.26;56.14
11268;BME280;49397;47.474;9.416;2022-12-29T00:48:20;95250.50;;;6.12;58.25
11268;BME280;49397;47.474;9.416;2022-12-29T00:51:05;95251.38;;;6.32;55.63
11268;BME280;49397;47.474;9.416;2022-12-29T00:53:31;95253.72;;;6.38;54.71
11268;BME280;49397;47.474;9.416;2022-12-29T00:55:57;95250.16;;;6.43;55.18
11268;BME280;49397;47.474;9.416;2022-12-29T00:58:22;95245.34;;;6.40;55.09
11268;BME280;49397;47.474;9.416;2022-12-29T01:00:48;95253.41;;;6.40;54.81
11268;BME280;49397;47.474;9.416;2022-12-29T01:03:13;95256.28;;;6.25;56.58
11268;BME280;49397;47.474;9.416;2022-12-29T01:05:39;95256.38;;;6.20;56.46
11268;BME280;49397;47.474;9.416;2022-12-29T01:08:04;95252.75;;;6.29;54.45
11268;BME280;49397;47.474;9.416;2022-12-29T01:10:30;95258.47;;;6.46;52.89
11268;BME280;49397;47.474;9.416;2022-12-29T01:12:55;95259.19;;;6.70;52.65
11268;BME280;49397;47.474;9.416;2022-12-29T01:15:21;95252.25;;;6.46;55.20
11268;BME280;49397;47.474;9.416;2022-12-29T01:17:47;95248.97;;;6.30;55.44
11268;BME280;49397;47.474;9.416;2022-12-29T01:20:12;95257.38;;;6.47;53.84
11268;BME280;49397;47.474;9.416;2022-12-29T01:22:38;95265.03;;;6.59;52.56
11268;BME280;49397;47.474;9.416;2022-12-29T01:25:05;95256.72;;;6.55;54.27
11268;BME280;49397;47.474;9.416;2022-12-29T01:27:30;95262.47;;;6.49;53.33
11268;BME280;49397;47.474;9.416;2022-12-29T01:29:56;95247.88;;;6.50;53.94
11268;BME280;49397;47.474;9.416;2022-12-29T01:32:21;95262.28;;;6.64;53.24
11268;BME280;49397;47.474;9.416;2022-12-29T01:34:47;95256.25;;;6.72;52.84
11268;BME280;49397;47.474;9.416;2022-12-29T01:37:12;95255.25;;;6.63;53.32
11268;BME280;49397;47.474;9.416;2022-12-29T01:39:38;95257.00;;;6.54;54.24
11268;BME280;49397;47.474;9.416;2022-12-29T01:42:03;95254.03;;;6.55;54.20
11268;BME280;49397;47.474;9.416;2022-12-29T01:47:23;95271.66;;;6.48;54.00
11268;BME280;49397;47.474;9.416;2022-12-29T01:49:54;95263.69;;;6.56;53.96
11268;BME280;49397;47.474;9.416;2022-12-29T01:52:22;95258.47;;;6.65;52.97
11268;BME280;49397;47.474;9.416;2022-12-29T01:54:53;95260.59;;;6.68;52.83
11268;BME280;49397;47.474;9.416;2022-12-29T01:57:24;95256.50;;;6.70;53.22
11268;BME280;49397;47.474;9.416;2022-12-29T02:00:11;95258.53;;;6.78;52.94
11268;BME280;49397;47.474;9.416;2022-12-29T02:02:37;95259.94;;;6.76;52.70
11268;BME280;49397;47.474;9.416;2022-12-29T02:05:09;95258.47;;;6.83;52.53
11268;BME280;49397;47.474;9.416;2022-12-29T02:07:36;95253.91;;;6.84;52.75
11268;BME280;49397;47.474;9.416;2022-12-29T02:10:03;95254.31;;;6.91;51.65
11268;BME280;49397;47.474;9.416;2022-12-29T02:12:29;95247.50;;;6.98;51.16
11268;BME280;49397;47.474;9.416;2022-12-29T02:14:58;95250.78;;;6.95;52.53
11268;BME280;49397;47.474;9.416;2022-12-29T02:20:26;95244.22;;;6.83;53.36
11268;BME280;49397;47.474;9.416;2022-12-29T02:31:23;95248.16;;;6.72;54.37
11268;BME280;49397;47.474;9.416;2022-12-29T02:36:32;95234.41;;;7.05;52.57
11268;BME280;49397;47.474;9.416;2022-12-29T02:39:15;95232.19;;;6.94;53.42
11268;BME280;49397;47.474;9.416;2022-12-29T02:44:41;95249.38;;;6.79;54.70
11268;BME280;49397;47.474;9.416;2022-12-29T02:48:32;95246.75;;;6.74;54.09
11268;BME280;49397;47.474;9.416;2022-12-29T02:50:50;95236.91;;;6.83;53.45
11268;BME280;49397;47.474;9.416;2022-12-29T02:53:19;95237.44;;;6.85;52.77
11268;BME280;49397;47.474;9.416;2022-12-29T02:56:06;95227.28;;;6.96;52.29
11268;BME280;49397;47.474;9.416;2022-12-29T02:58:31;95216.31;;;6.92;51.55
11268;BME280;49397;47.474;9.416;2022-12-29T03:17:40;95235.22;;;6.69;56.61
11268;BME280;49397;47.474;9.416;2022-12-29T03:20:16;95238.31;;;6.62;55.53
11268;BME280;49397;47.474;9.416;2022-12-29T03:22:46;95259.06;;;6.80;55.88
11268;BME280;49397;47.474;9.416;2022-12-29T03:27:45;95268.91;;;6.71;58.51
11268;BME280;49397;47.474;9.416;2022-12-29T03:30:12;95270.06;;;6.65;60.20
11268;BME280;49397;47.474;9.416;2022-12-29T03:32:42;95258.53;;;6.60;57.80
11268;BME280;49397;47.474;9.416;2022-12-29T03:35:12;95250.97;;;6.62;58.39
11268;BME280;49397;47.474;9.416;2022-12-29T03:37:41;95262.28;;;6.64;58.47
11268;BME280;49397;47.474;9.416;2022-12-29T03:40:08;95241.06;;;6.57;58.02
11268;BME280;49397;47.474;9.416;2022-12-29T03:42:36;95245.06;;;6.60;57.29
11268;BME280;49397;47.474;9.416;2022-12-29T03:45:04;95244.94;;;6.70;57.06
11268;BME280;49397;47.474;9.416;2022-12-29T03:47:30;95250.34;;;6.70;58.22
11268;BME280;49397;47.474;9.416;2022-12-29T03:49:55;95250.03;;;6.71;57.87
11268;BME280;49397;47.474;9.416;2022-12-29T03:52:21;95247.94;;;6.68;58.13
11268;BME280;49397;47.474;9.416;2022-12-29T03:54:46;95258.19;;;6.66;58.02
11268;BME280;49397;47.474;9.416;2022-12-29T03:57:12;95246.88;;;6.64;58.54
11268;BME280;49397;47.474;9.416;2022-12-29T03:59:37;95254.19;;;6.64;58.59
11268;BME280;49397;47.474;9.416;2022-12-29T04:02:03;95254.19;;;6.64;59.12
11268;BME280;49397;47.474;9.416;2022-12-29T04:04:29;95256.13;;;6.58;58.81
11268;BME280;49397;47.474;9.416;2022-12-29T04:06:54;95265.91;;;6.54;58.97
11268;BME280;49397;47.474;9.416;2022-12-29T04:09:20;95256.78;;;6.50;59.93
11268;BME280;49397;47.474;9.416;2022-12-29T04:11:45;95247.63;;;6.51;60.12
11268;BME280;49397;47.474;9.416;2022-12-29T04:14:10;95235.63;;;6.39;59.41
11268;BME280;49397;47.474;9.416;2022-12-29T04:16:36;95235.63;;;6.39;60.62
11268;BME280;49397;47.474;9.416;2022-12-29T04:19:05;95235.00;;;6.47;60.66
11268;BME280;49397;47.474;9.416;2022-12-29T04:21:30;95234.84;;;6.38;62.02
11268;BME280;49397;47.474;9.416;2022-12-29T04:23:56;95228.78;;;6.28;61.33
11268;BME280;49397;47.474;9.416;2022-12-29T04:26:21;95246.69;;;6.37;59.69
11268;BME280;49397;47.474;9.416;2022-12-29T04:28:47;95243.59;;;6.49;58.92
11268;BME280;49397;47.474;9.416;2022-12-29T04:31:12;95232.81;;;6.49;58.99
11268;BME280;49397;47.474;9.416;2022-12-29T04:33:38;95244.84;;;6.56;58.81
11268;BME280;49397;47.474;9.416;2022-12-29T04:36:03;95244.94;;;6.51;59.94
11268;BME280;49397;47.474;9.416;2022-12-29T04:38:29;95235.28;;;6.45;60.78
11268;BME280;49397;47.474;9.416;2022-12-29T04:40:55;95239.81;;;6.50;60.55
11268;BME280;49397;47.474;9.416;2022-12-29T04:43:20;95246.69;;;6.37;61.93
11268;BME280;49397;47.474;9.416;2022-12-29T04:45:47;95228.66;;;6.38;60.42
11268;BME280;49397;47.474;9.416;2022-12-29T04:48:13;95232.50;;;6.32;59.75
11268;BME280;49397;47.474;9.416;2022-12-29T04:50:39;95228.50;;;6.29;61.84
11268;BME280;49397;47.474;9.416;2022-12-29T04:53:05;95244.22;;;6.22;62.08
11268;BME280;49397;47.474;9.416;2022-12-29T04:55:31;95241.47;;;6.27;61.26
11268;BME280;49397;47.474;9.416;2022-12-29T04:57:57;95243.97;;;6.18;61.12
11268;BME280;49397;47.474;9.416;2022-12-29T05:00:22;95237.56;;;6.14;60.85
11268;BME280;49397;47.474;9.416;2022-12-29T05:02:48;95232.28;;;6.04;63.45
11268;BME280;49397;47.474;9.416;2022-12-29T05:05:14;95223.97;;;6.01;64.25
11268;BME280;49397;47.474;9.416;2022-12-29T05:07:39;95222.91;;;6.02;65.29
11268;BME280;49397;47.474;9.416;2022-12-29T05:10:06;95215.31;;;6.04;64.84
11268;BME280;49397;47.474;9.416;2022-12-29T05:12:32;95217.97;;;6.09;63.33
11268;BME280;49397;47.474;9.416;2022-12-29T05:14:59;95214.34;;;6.18;61.23
11268;BME280;49397;47.474;9.416;2022-12-29T05:17:24;95208.44;;;6.16;63.35
11268;BME280;49397;47.474;9.416;2022-12-29T05:19:50;95202.28;;;6.16;61.56
11268;BME280;49397;47.474;9.416;2022-12-29T05:22:15;95204.63;;;6.23;60.93
11268;BME280;49397;47.474;9.416;2022-12-29T05:24:41;95192.22;;;6.22;59.88
11268;BME280;49397;47.474;9.416;2022-12-29T05:27:06;95198.94;;;6.24;59.25
11268;BME280;49397;47.474;9.416;2022-12-29T05:29:32;95201.41;;;6.21;60.01
11268;BME280;49397;47.474;9.416;2022-12-29T05:31:57;95220.53;;;6.19;60.56
11268;BME280;49397;47.474;9.416;2022-12-29T05:34:23;95218.25;;;6.07;60.78
11268;BME280;49397;47.474;9.416;2022-12-29T05:36:49;95216.19;;;5.99;60.97
11268;BME280;49397;47.474;9.416;2022-12-29T05:39:14;95219.34;;;5.83;62.39
11268;BME280;49397;47.474;9.416;2022-12-29T05:41:40;95214.53;;;5.80;62.64
11268;BME280;49397;47.474;9.416;2022-12-29T05:44:05;95213.16;;;5.82;63.02
11268;BME280;49397;47.474;9.416;2022-12-29T05:46:31;95201.06;;;5.80;61.37
11268;BME280;49397;47.474;9.416;2022-12-29T05:48:57;95219.34;;;5.83;62.35
11268;BME280;49397;47.474;9.416;2022-12-29T05:51:23;95215.84;;;5.82;61.80
11268;BME280;49397;47.474;9.416;2022-12-29T05:53:48;95215.88;;;5.77;62.40
11268;BME280;49397;47.474;9.416;2022-12-29T05:56:14;95206.81;;;5.68;61.34
11268;BME280;49397;47.474;9.416;2022-12-29T05:58:39;95205.63;;;5.84;61.46
11268;BME280;49397;47.474;9.416;2022-12-29T06:01:05;95213.81;;;5.69;63.16
11268;BME280;49397;47.474;9.416;2022-12-29T06:03:30;95221.09;;;5.69;63.20
11268;BME280;49397;47.474;9.416;2022-12-29T06:05:56;95217.88;;;5.67;63.85
11268;BME280;49397;47.474;9.416;2022-12-29T06:08:21;95223.41;;;5.52;63.97
11268;BME280;49397;47.474;9.416;2022-12-29T06:10:47;95216.44;;;5.51;63.87
11268;BME280;49397;47.474;9.416;2022-12-29T06:13:12;95208.34;;;5.51;64.72
11268;BME280;49397;47.474;9.416;2022-12-29T06:15:38;95204.72;;;5.37;64.97
11268;BME280;49397;47.474;9.416;2022-12-29T06:18:03;95230.28;;;5.34;65.64
11268;BME280;49397;47.474;9.416;2022-12-29T06:20:29;95210.78;;;5.19;65.60
11268;BME280;49397;47.474;9.416;2022-12-29T06:22:54;95217.41;;;5.31;63.51
11268;BME280;49397;47.474;9.416;2022-12-29T06:25:20;95223.28;;;5.38;62.06
11268;BME280;49397;47.474;9.416;2022-12-29T06:27:45;95237.13;;;5.50;62.59
11268;BME280;49397;47.474;9.416;2022-12-29T06:30:12;95236.34;;;5.50;61.27
11268;BME280;49397;47.474;9.416;2022-12-29T06:32:38;95223.69;;;5.50;62.74
11268;BME280;49397;47.474;9.416;2022-12-29T06:35:04;95234.16;;;5.52;62.08
11268;BME280;49397;47.474;9.416;2022-12-29T06:37:31;95228.59;;;5.43;63.06
11268;BME280;49397;47.474;9.416;2022-12-29T06:39:56;95246.31;;;5.49;63.18
11268;BME280;49397;47.474;9.416;2022-12-29T06:42:22;95244.19;;;5.46;63.65
11268;BME280;49397;47.474;9.416;2022-12-29T06:44:47;95244.47;;;5.45;63.86
11268;BME280;49397;47.474;9.416;2022-12-29T06:47:13;95244.44;;;5.50;61.98
11268;BME280;49397;47.474;9.416;2022-12-29T06:49:38;95246.72;;;5.61;60.95
11268;BME280;49397;47.474;9.416;2022-12-29T06:52:04;95248.00;;;5.69;59.46
11268;BME280;49397;47.474;9.416;2022-12-29T06:54:30;95253.50;;;5.87;58.47
11268;BME280;49397;47.474;9.416;2022-12-29T06:56:56;95253.94;;;5.94;59.70
11268;BME280;49397;47.474;9.416;2022-12-29T06:59:22;95254.50;;;5.91;62.29
11268;BME280;49397;47.474;9.416;2022-12-29T07:01:48;95265.81;;;5.93;60.34
11268;BME280;49397;47.474;9.416;2022-12-29T07:04:13;95271.13;;;5.98;61.59
11268;BME280;49397;47.474;9.416;2022-12-29T07:06:39;95263.31;;;6.02;60.05
11268;BME280;49397;47.474;9.416;2022-12-29T07:09:06;95266.78;;;6.02;60.67
11268;BME280;49397;47.474;9.416;2022-12-29T07:11:32;95266.56;;;5.99;60.85
11268;BME280;49397;47.474;9.416;2022-12-29T07:13:58;95267.53;;;6.08;60.09
11268;BME280;49397;47.474;9.416;2022-12-29T07:16:24;95267.88;;;6.01;61.01
11268;BME280;49397;47.474;9.416;2022-12-29T07:18:50;95277.72;;;6.11;60.67
11268;BME280;49397;47.474;9.416;2022-12-29T07:21:15;95265.91;;;6.07;62.29
11268;BME280;49397;47.474;9.416;2022-12-29T07:23:41;95275.94;;;6.25;58.66
11268;BME280;49397;47.474;9.416;2022-12-29T07:26:08;95268.47;;;6.41;58.90
11268;BME280;49397;47.474;9.416;2022-12-29T07:28:35;95278.22;;;6.60;55.26
11268;BME280;49397;47.474;9.416;2022-12-29T07:31:01;95277.06;;;6.85;56.45
11268;BME280;49397;47.474;9.416;2022-12-29T07:33:31;95287.88;;;7.03;55.71
11268;BME280;49397;47.474;9.416;2022-12-29T07:35:57;95287.41;;;7.15;53.98
11268;BME280;49397;47.474;9.416;2022-12-29T07:38:23;95281.13;;;7.19;57.97
11268;BME280;49397;47.474;9.416;2022-12-29T07:40:48;95278.59;;;7.28;53.22
11268;BME280;49397;47.474;9.416;2022-12-29T07:43:14;95270.72;;;7.31;55.29
11268;BME280;49397;47.474;9.416;2022-12-29T07:45:39;95259.06;;;7.49;53.44
11268;BME280;49397;47.474;9.416;2022-12-29T07:48:06;95256.81;;;7.70;52.13
11268;BME280;49397;47.474;9.416;2022-12-29T07:50:35;95261.19;;;8.12;49.27
11268;BME280;49397;47.474;9.416;2022-12-29T07:53:01;95271.84;;;8.22;48.82
11268;BME280;49397;47.474;9.416;2022-12-29T07:55:27;95265.66;;;8.48;47.35
11268;BME280;49397;47.474;9.416;2022-12-29T07:57:53;95266.84;;;8.56;46.45
11268;BME280;49397;47.474;9.416;2022-12-29T08:00:19;95266.41;;;8.76;44.91
11268;BME280;49397;47.474;9.416;2022-12-29T08:02:44;95260.22;;;8.75;46.52
11268;BME280;49397;47.474;9.416;2022-12-29T08:05:10;95265.94;;;8.74;46.15
11268;BME280;49397;47.474;9.416;2022-12-29T08:07:35;95265.63;;;8.75;46.63
11268;BME280;49397;47.474;9.416;2022-12-29T08:10:01;95254.19;;;8.78;46.09
11268;BME280;49397;47.474;9.416;2022-12-29T08:12:28;95253.53;;;8.95;45.26
11268;BME280;49397;47.474;9.416;2022-12-29T08:14:54;95252.72;;;9.08;44.20
11268;BME280;49397;47.474;9.416;2022-12-29T08:17:19;95245.28;;;9.13;43.90
11268;BME280;49397;47.474;9.416;2022-12-29T08:19:44;95261.16;;;9.29;42.55
11268;BME280;49397;47.474;9.416;2022-12-29T08:22:10;95256.38;;;9.26;43.71
11268;BME280;49397;47.474;9.416;2022-12-29T08:24:35;95256.47;;;9.20;42.83
11268;BME280;49397;47.474;9.416;2022-12-29T08:27:01;95247.44;;;9.25;42.85
11268;BME280;49397;47.474;9.416;2022-12-29T08:29:27;95263.78;;;9.20;43.37
11268;BME280;49397;47.474;9.416;2022-12-29T08:31:52;95262.91;;;9.25;42.25
11268;BME280;49397;47.474;9.416;2022-12-29T08:34:18;95264.06;;;9.32;42.34
11268;BME280;49397;47.474;9.416;2022-12-29T08:36:43;95261.47;;;9.49;41.98
11268;BME280;49397;47.474;9.416;2022-12-29T08:39:09;95251.19;;;9.60;40.67
11268;BME280;49397;47.474;9.416;2022-12-29T08:41:34;95254.09;;;9.63;41.12
11268;BME280;49397;47.474;9.416;2022-12-29T08:44:00;95251.78;;;9.79;39.74
11268;BME280;49397;47.474;9.416;2022-12-29T08:46:25;95246.13;;;9.89;40.71
11268;BME280;49397;47.474;9.416;2022-12-29T08:48:51;95248.66;;;9.85;40.78
11268;BME280;49397;47.474;9.416;2022-12-29T08:51:16;95250.13;;;9.91;40.02
11268;BME280;49397;47.474;9.416;2022-12-29T08:53:42;95235.59;;;10.09;39.67
11268;BME280;49397;47.474;9.416;2022-12-29T08:56:08;95221.00;;;10.05;39.37
11268;BME280;49397;47.474;9.416;2022-12-29T08:58:34;95243.75;;;10.18;39.51
11268;BME280;49397;47.474;9.416;2022-12-29T09:00:59;95244.72;;;10.22;39.21
11268;BME280;49397;47.474;9.416;2022-12-29T09:03:25;95255.56;;;10.22;39.63
11268;BME280;49397;47.474;9.416;2022-12-29T09:05:52;95249.00;;;10.14;41.45
11268;BME280;49397;47.474;9.416;2022-12-29T09:08:18;95258.78;;;10.24;39.25
11268;BME280;49397;47.474;9.416;2022-12-29T09:10:44;95250.78;;;10.19;39.34
11268;BME280;49397;47.474;9.416;2022-12-29T09:13:11;95269.06;;;10.13;40.92
11268;BME280;49397;47.474;9.416;2022-12-29T09:15:38;95260.38;;;10.03;39.48
11268;BME280;49397;47.474;9.416;2022-12-29T09:18:04;95281.16;;;10.07;40.37
11268;BME280;49397;47.474;9.416;2022-12-29T09:20:29;95275.75;;;10.07;40.58
11268;BME280;49397;47.474;9.416;2022-12-29T09:22:55;95281.41;;;9.97;44.28
11268;BME280;49397;47.474;9.416;2022-12-29T09:25:20;95267.94;;;9.84;43.09
11268;BME280;49397;47.474;9.416;2022-12-29T09:27:48;95278.97;;;9.87;43.66
11268;BME280;49397;47.474;9.416;2022-12-29T09:30:14;95277.66;;;9.85;45.20
11268;BME280;49397;47.474;9.416;2022-12-29T09:32:40;95277.59;;;9.76;45.96
11268;BME280;49397;47.474;9.416;2022-12-29T09:35:06;95285.25;;;9.74;46.47
11268;BME280;49397;47.474;9.416;2022-12-29T09:37:32;95287.63;;;9.76;46.62
11268;BME280;49397;47.474;9.416;2022-12-29T09:39:58;95289.09;;;9.82;46.17
11268;BME280;49397;47.474;9.416;2022-12-29T09:42:29;95282.78;;;9.86;47.46
11268;BME280;49397;47.474;9.416;2022-12-29T09:45:16;95277.41;;;9.95;46.56
11268;BME280;49397;47.474;9.416;2022-12-29T09:47:44;95281.56;;;10.01;46.19
11268;BME280;49397;47.474;9.416;2022-12-29T09:52:47;95278.13;;;10.09;46.88
11268;BME280;49397;47.474;9.416;2022-12-29T09:55:17;95278.47;;;10.07;47.55
11268;BME280;49397;47.474;9.416;2022-12-29T09:57:56;95281.44;;;10.06;47.63
11268;BME280;49397;47.474;9.416;2022-12-29T10:00:33;95291.13;;;10.20;46.80
11268;BME280;49397;47.474;9.416;2022-12-29T10:03:40;95286.28;;;10.48;46.64
11268;BME280;49397;47.474;9.416;2022-12-29T10:06:15;95270.56;;;10.67;46.02
11268;BME280;49397;47.474;9.416;2022-12-29T10:09:45;95279.75;;;11.05;46.39
11268;BME280;49397;47.474;9.416;2022-12-29T10:22:38;95266.31;;;12.57;43.73
11268;BME280;49397;47.474;9.416;2022-12-29T10:25:22;95259.50;;;12.80;42.78
11268;BME280;49397;47.474;9.416;2022-12-29T10:27:50;95253.31;;;12.92;42.79
11268;BME280;49397;47.474;9.416;2022-12-29T10:30:17;95252.09;;;12.81;43.13
11268;BME280;49397;47.474;9.416;2022-12-29T10:32:54;95260.28;;;13.10;41.74
11268;BME280;49397;47.474;9.416;2022-12-29T10:35:28;95249.28;;;13.27;41.71
11268;BME280;49397;47.474;9.416;2022-12-29T10:38:27;95241.72;;;13.32;42.02
11268;BME280;49397;47.474;9.416;2022-12-29T10:41:11;95236.50;;;13.60;42.26
11268;BME280;49397;47.474;9.416;2022-12-29T10:43:49;95228.06;;;13.74;42.01
11268;BME280;49397;47.474;9.416;2022-12-29T10:46:19;95225.03;;;13.54;39.84
11268;BME280;49397;47.474;9.416;2022-12-29T10:48:46;95230.66;;;13.49;40.69
11268;BME280;49397;47.474;9.416;2022-12-29T10:51:23;95224.63;;;13.44;40.10
11268;BME280;49397;47.474;9.416;2022-12-29T10:56:43;95230.81;;;13.53;39.23
11268;BME280;49397;47.474;9.416;2022-12-29T10:59:25;95225.34;;;13.53;40.54
11268;BME280;49397;47.474;9.416;2022-12-29T11:04:48;95209.84;;;13.65;41.07
11268;BME280;49397;47.474;9.416;2022-12-29T11:07:20;95205.78;;;13.72;40.65
11268;BME280;49397;47.474;9.416;2022-12-29T11:09:46;95209.19;;;13.68;41.72
11268;BME280;49397;47.474;9.416;2022-12-29T11:12:27;95199.94;;;13.61;40.58
11268;BME280;49397;47.474;9.416;2022-12-29T11:15:19;95199.38;;;14.00;38.23
11268;BME280;49397;47.474;9.416;2022-12-29T11:17:51;95185.53;;;14.05;39.27
11268;BME280;49397;47.474;9.416;2022-12-29T11:20:36;95187.09;;;14.51;38.33
11268;BME280;49397;47.474;9.416;2022-12-29T11:23:04;95177.06;;;14.55;37.98
11268;BME280;49397;47.474;9.416;2022-12-29T11:25:30;95166.47;;;14.65;38.76
11268;BME280;49397;47.474;9.416;2022-12-29T11:28:13;95167.28;;;14.42;38.63
11268;BME280;49397;47.474;9.416;2022-12-29T11:30:39;95170.81;;;14.30;37.73
11268;BME280;49397;47.474;9.416;2022-12-29T11:33:05;95176.84;;;14.36;38.05
11268;BME280;49397;47.474;9.416;2022-12-29T11:35:43;95159.56;;;14.68;36.57
11268;BME280;49397;47.474;9.416;2022-12-29T11:38:24;95172.91;;;14.97;35.86
11268;BME280;49397;47.474;9.416;2022-12-29T11:40:51;95163.94;;;14.84;36.33
11268;BME280;49397;47.474;9.416;2022-12-29T11:45:54;95169.91;;;14.38;38.60
11268;BME280;49397;47.474;9.416;2022-12-29T11:48:22;95160.66;;;14.19;38.45
11268;BME280;49397;47.474;9.416;2022-12-29T11:50:54;95168.72;;;14.15;38.64
11268;BME280;49397;47.474;9.416;2022-12-29T11:53:23;95172.81;;;14.09;38.56
11268;BME280;49397;47.474;9.416;2022-12-29T11:55:52;95161.88;;;13.97;38.60
11268;BME280;49397;47.474;9.416;2022-12-29T11:58:19;95167.09;;;13.90;39.50
11268;BME280;49397;47.474;9.416;2022-12-29T12:00:45;95161.28;;;13.92;38.48
11268;BME280;49397;47.474;9.416;2022-12-29T12:03:21;95151.03;;;13.77;40.16
11268;BME280;49397;47.474;9.416;2022-12-29T12:05:53;95154.00;;;13.84;39.33
11268;BME280;49397;47.474;9.416;2022-12-29T12:11:26;95156.16;;;13.90;40.03
11268;BME280;49397;47.474;9.416;2022-12-29T12:16:57;95144.94;;;13.92;39.64
11268;BME280;49397;47.474;9.416;2022-12-29T12:19:48;95138.78;;;13.83;40.28
11268;BME280;49397;47.474;9.416;2022-12-29T12:22:24;95135.47;;;13.77;40.44
11268;BME280;49397;47.474;9.416;2022-12-29T12:25:23;95142.13;;;13.67;39.75
11268;BME280;49397;47.474;9.416;2022-12-29T12:28:01;95146.41;;;13.56;40.33
11268;BME280;49397;47.474;9.416;2022-12-29T12:30:37;95142.66;;;13.49;39.92
11268;BME280;49397;47.474;9.416;2022-12-29T12:33:16;95143.53;;;13.41;41.24
11268;BME280;49397;47.474;9.416;2022-12-29T12:38:59;95148.00;;;13.25;42.91
11268;BME280;49397;47.474;9.416;2022-12-29T12:41:51;95156.06;;;13.21;42.52
11268;BME280;49397;47.474;9.416;2022-12-29T12:50:18;95133.09;;;12.40;48.57
11268;BME280;49397;47.474;9.416;2022-12-29T12:55:48;95138.75;;;12.27;50.73
11268;BME280;49397;47.474;9.416;2022-12-29T13:01:42;95138.31;;;12.16;52.64
11268;BME280;49397;47.474;9.416;2022-12-29T13:04:16;95146.66;;;12.11;53.11
11268;BME280;49397;47.474;9.416;2022-12-29T13:06:49;95145.22;;;12.13;53.14
11268;BME280;49397;47.474;9.416;2022-12-29T13:09:41;95140.81;;;12.00;55.00
11268;BME280;49397;47.474;9.416;2022-12-29T13:12:35;95133.38;;;11.80;54.77
11268;BME280;49397;47.474;9.416;2022-12-29T13:15:21;95146.47;;;11.78;54.97
11268;BME280;49397;47.474;9.416;2022-12-29T13:23:30;95128.59;;;11.69;55.33
11268;BME280;49397;47.474;9.416;2022-12-29T13:26:12;95131.63;;;11.59;54.28
11268;BME280;49397;47.474;9.416;2022-12-29T13:29:13;95135.81;;;11.56;57.07
11268;BME280;49397;47.474;9.416;2022-12-29T13:32:15;95131.66;;;11.50;55.47
11268;BME280;49397;47.474;9.416;2022-12-29T13:34:54;95126.56;;;11.49;55.87
11268;BME280;49397;47.474;9.416;2022-12-29T13:37:25;95124.63;;;11.49;54.65
11268;BME280;49397;47.474;9.416;2022-12-29T13:39:57;95123.84;;;11.40;55.77
11268;BME280;49397;47.474;9.416;2022-12-29T13:42:25;95114.94;;;11.31;55.27
11268;BME280;49397;47.474;9.416;2022-12-29T13:44:59;95125.00;;;11.31;58.10
11268;BME280;49397;47.474;9.416;2022-12-29T13:49:56;95125.47;;;11.24;58.26
11268;BME280;49397;47.474;9.416;2022-12-29T13:52:49;95121.66;;;11.17;59.51
11268;BME280;49397;47.474;9.416;2022-12-29T13:55:25;95119.09;;;11.20;55.78
11268;BME280;49397;47.474;9.416;2022-12-29T14:03:44;95115.44;;;11.25;59.13
11268;BME280;49397;47.474;9.416;2022-12-29T14:08:39;95120.41;;;11.14;57.32
11268;BME280;49397;47.474;9.416;2022-12-29T14:11:09;95121.19;;;11.15;57.63
11268;BME280;49397;47.474;9.416;2022-12-29T14:13:40;95109.22;;;11.16;57.17
11268;BME280;49397;47.474;9.416;2022-12-29T14:16:24;95108.69;;;11.31;51.87
11268;BME280;49397;47.474;9.416;2022-12-29T14:18:50;95109.28;;;11.53;50.49
11268;BME280;49397;47.474;9.416;2022-12-29T14:23:44;95118.84;;;11.59;48.69
11268;BME280;49397;47.474;9.416;2022-12-29T14:26:11;95119.19;;;11.49;53.18
11268;BME280;49397;47.474;9.416;2022-12-29T14:28:49;95125.75;;;11.40;54.29
11268;BME280;49397;47.474;9.416;2022-12-29T14:33:41;95136.34;;;11.24;55.25
11268;BME280;49397;47.474;9.416;2022-12-29T14:39:01;95133.81;;;11.11;56.38
11268;BME280;49397;47.474;9.416;2022-12-29T14:41:33;95135.22;;;11.08;58.27
11268;BME280;49397;47.474;9.416;2022-12-29T14:47:04;95136.69;;;10.89;58.27
11268;BME280;49397;47.474;9.416;2022-12-29T14:49:39;95127.13;;;10.83;55.75
11268;BME280;49397;47.474;9.416;2022-12-29T14:52:19;95125.34;;;10.69;54.90
11268;BME280;49397;47.474;9.416;2022-12-29T14:54:55;95138.91;;;10.78;55.63
11268;BME280;49397;47.474;9.416;2022-12-29T14:57:27;95135.25;;;10.74;54.92
11268;BME280;49397;47.474;9.416;2022-12-29T14:59:57;95147.22;;;10.73;53.41
11268;BME280;49397;47.474;9.416;2022-12-29T15:02:26;95151.19;;;10.67;54.96
11268;BME280;49397;47.474;9.416;2022-12-29T15:04:59;95149.78;;;10.69;52.50
11268;BME280;49397;47.474;9.416;2022-12-29T15:07:27;95143.53;;;10.69;50.98
11268;BME280;49397;47.474;9.416;2022-12-29T15:09:58;95142.59;;;10.65;52.93
11268;BME280;49397;47.474;9.416;2022-12-29T15:12:45;95145.47;;;10.77;50.25